sensor_id;sensor_type;location;lat;lon;timestamp;P1;durP1;ratioP1;P2;durP2;ratioP2
80421;SDS011;69763;50.182;9.144;2023-10-13T00:01:06;14.65;;;5.40;;
80421;SDS011;69763;50.182;9.144;2023-10-13T00:03:32;10.93;;;6.88;;
80421;SDS011;69763;50.182;9.144;2023-10-13T00:05:58;11.32;;;5.68;;
80421;SDS011;69763;50.182;9.144;2023-10-13T00:10:50;11.23;;;5.68;;
80421;SDS011;69763;50.182;9.144;2023-10-13T00:13:16;12.32;;;5.85;;
80421;SDS011;69763;50.182;9.144;2023-10-13T00:15:41;12.20;;;5.90;;
80421;SDS011;69763;50.182;9.144;2023-10-13T00:18:08;16.67;;;5.75;;
80421;SDS011;69763;50.182;9.144;2023-10-13T00:20:33;10.25;;;6.15;;
80421;SDS011;69763;50.182;9.144;2023-10-13T00:22:59;15.98;;;5.55;;
80421;SDS011;69763;50.182;9.144;2023-10-13T00:25:25;16.35;;;6.40;;
80421;SDS011;69763;50.182;9.144;2023-10-13T00:27:51;10.73;;;5.20;;
80421;SDS011;69763;50.182;9.144;2023-10-13T00:30:16;18.40;;;6.35;;
80421;SDS011;69763;50.182;9.144;2023-10-13T00:32:42;11.38;;;6.00;;
80421;SDS011;69763;50.182;9.144;2023-10-13T00:35:09;15.25;;;6.57;;
80421;SDS011;69763;50.182;9.144;2023-10-13T00:37:38;10.65;;;5.45;;
80421;SDS011;69763;50.182;9.144;2023-10-13T00:40:04;13.55;;;6.20;;
80421;SDS011;69763;50.182;9.144;2023-10-13T00:42:32;15.77;;;6.45;;
80421;SDS011;69763;50.182;9.144;2023-10-13T00:44:57;11.60;;;6.25;;
80421;SDS011;69763;50.182;9.144;2023-10-13T00:47:23;14.00;;;6.43;;
80421;SDS011;69763;50.182;9.144;2023-10-13T00:49:48;11.70;;;6.20;;
80421;SDS011;69763;50.182;9.144;2023-10-13T00:52:17;8.35;;;5.55;;
80421;SDS011;69763;50.182;9.144;2023-10-13T00:54:44;15.60;;;6.30;;
80421;SDS011;69763;50.182;9.144;2023-10-13T00:57:10;16.08;;;7.53;;
80421;SDS011;69763;50.182;9.144;2023-10-13T00:59:41;12.48;;;6.38;;
80421;SDS011;69763;50.182;9.144;2023-10-13T01:02:07;17.13;;;5.75;;
80421;SDS011;69763;50.182;9.144;2023-10-13T01:04:32;11.88;;;6.20;;
80421;SDS011;69763;50.182;9.144;2023-10-13T01:06:58;12.32;;;6.20;;
80421;SDS011;69763;50.182;9.144;2023-10-13T01:09:24;9.43;;;5.95;;
80421;SDS011;69763;50.182;9.144;2023-10-13T01:11:50;12.00;;;6.10;;
80421;SDS011;69763;50.182;9.144;2023-10-13T01:14:16;13.73;;;6.88;;
80421;SDS011;69763;50.182;9.144;2023-10-13T01:16:49;14.07;;;6.00;;
80421;SDS011;69763;50.182;9.144;2023-10-13T01:19:17;12.05;;;5.32;;
80421;SDS011;69763;50.182;9.144;2023-10-13T01:21:45;16.02;;;6.10;;
80421;SDS011;69763;50.182;9.144;2023-10-13T01:24:14;10.90;;;6.03;;
80421;SDS011;69763;50.182;9.144;2023-10-13T01:26:39;12.57;;;6.18;;
80421;SDS011;69763;50.182;9.144;2023-10-13T01:29:08;16.50;;;5.40;;
80421;SDS011;69763;50.182;9.144;2023-10-13T01:31:33;13.80;;;6.03;;
80421;SDS011;69763;50.182;9.144;2023-10-13T01:33:59;11.20;;;5.63;;
80421;SDS011;69763;50.182;9.144;2023-10-13T01:36:24;10.27;;;5.70;;
80421;SDS011;69763;50.182;9.144;2023-10-13T01:38:51;13.00;;;5.65;;
80421;SDS011;69763;50.182;9.144;2023-10-13T01:41:20;15.00;;;5.47;;
80421;SDS011;69763;50.182;9.144;2023-10-13T01:43:46;19.15;;;6.00;;
80421;SDS011;69763;50.182;9.144;2023-10-13T01:46:12;10.75;;;5.30;;
80421;SDS011;69763;50.182;9.144;2023-10-13T01:48:37;12.60;;;5.80;;
80421;SDS011;69763;50.182;9.144;2023-10-13T01:51:03;9.95;;;5.85;;
80421;SDS011;69763;50.182;9.144;2023-10-13T01:53:29;11.82;;;5.55;;
80421;SDS011;69763;50.182;9.144;2023-10-13T01:55:54;16.88;;;6.60;;
80421;SDS011;69763;50.182;9.144;2023-10-13T01:58:21;15.65;;;6.18;;
80421;SDS011;69763;50.182;9.144;2023-10-13T02:00:47;9.32;;;5.63;;
80421;SDS011;69763;50.182;9.144;2023-10-13T02:03:22;12.18;;;6.00;;
80421;SDS011;69763;50.182;9.144;2023-10-13T02:05:48;17.63;;;6.22;;
80421;SDS011;69763;50.182;9.144;2023-10-13T02:08:14;15.75;;;5.85;;
80421;SDS011;69763;50.182;9.144;2023-10-13T02:10:40;14.40;;;6.15;;
80421;SDS011;69763;50.182;9.144;2023-10-13T02:13:05;13.35;;;6.25;;
80421;SDS011;69763;50.182;9.144;2023-10-13T02:15:38;14.95;;;5.65;;
80421;SDS011;69763;50.182;9.144;2023-10-13T02:18:05;11.32;;;5.13;;
80421;SDS011;69763;50.182;9.144;2023-10-13T02:20:30;18.92;;;5.72;;
80421;SDS011;69763;50.182;9.144;2023-10-13T02:22:57;11.02;;;5.72;;
80421;SDS011;69763;50.182;9.144;2023-10-13T02:25:23;11.48;;;5.75;;
80421;SDS011;69763;50.182;9.144;2023-10-13T02:27:48;12.93;;;5.57;;
80421;SDS011;69763;50.182;9.144;2023-10-13T02:30:19;13.18;;;5.25;;
80421;SDS011;69763;50.182;9.144;2023-10-13T02:32:46;8.82;;;5.53;;
80421;SDS011;69763;50.182;9.144;2023-10-13T02:35:12;14.90;;;6.35;;
80421;SDS011;69763;50.182;9.144;2023-10-13T02:37:37;16.58;;;5.63;;
80421;SDS011;69763;50.182;9.144;2023-10-13T02:40:03;15.32;;;8.38;;
80421;SDS011;69763;50.182;9.144;2023-10-13T02:42:29;12.35;;;6.05;;
80421;SDS011;69763;50.182;9.144;2023-10-13T02:44:54;10.68;;;5.68;;
80421;SDS011;69763;50.182;9.144;2023-10-13T02:47:20;10.25;;;5.90;;
80421;SDS011;69763;50.182;9.144;2023-10-13T02:49:46;11.20;;;5.95;;
80421;SDS011;69763;50.182;9.144;2023-10-13T02:52:12;10.63;;;5.85;;
80421;SDS011;69763;50.182;9.144;2023-10-13T02:54:37;20.45;;;6.38;;
80421;SDS011;69763;50.182;9.144;2023-10-13T02:57:03;11.95;;;6.28;;
80421;SDS011;69763;50.182;9.144;2023-10-13T02:59:28;11.75;;;6.60;;
80421;SDS011;69763;50.182;9.144;2023-10-13T03:01:55;14.20;;;6.07;;
80421;SDS011;69763;50.182;9.144;2023-10-13T03:04:20;13.80;;;6.05;;
80421;SDS011;69763;50.182;9.144;2023-10-13T03:06:47;15.77;;;6.22;;
80421;SDS011;69763;50.182;9.144;2023-10-13T03:09:12;12.38;;;5.82;;
80421;SDS011;69763;50.182;9.144;2023-10-13T03:11:38;12.23;;;5.82;;
80421;SDS011;69763;50.182;9.144;2023-10-13T03:14:15;13.43;;;5.70;;
80421;SDS011;69763;50.182;9.144;2023-10-13T03:16:41;10.77;;;6.20;;
80421;SDS011;69763;50.182;9.144;2023-10-13T03:19:06;15.25;;;6.13;;
80421;SDS011;69763;50.182;9.144;2023-10-13T03:21:32;10.75;;;5.50;;
80421;SDS011;69763;50.182;9.144;2023-10-13T03:23:59;13.90;;;6.55;;
80421;SDS011;69763;50.182;9.144;2023-10-13T03:26:27;10.70;;;5.22;;
80421;SDS011;69763;50.182;9.144;2023-10-13T03:28:53;12.80;;;6.50;;
80421;SDS011;69763;50.182;9.144;2023-10-13T03:31:19;11.90;;;5.45;;
80421;SDS011;69763;50.182;9.144;2023-10-13T03:33:46;18.80;;;6.00;;
80421;SDS011;69763;50.182;9.144;2023-10-13T03:36:12;13.30;;;5.78;;
80421;SDS011;69763;50.182;9.144;2023-10-13T03:38:38;11.02;;;5.60;;
80421;SDS011;69763;50.182;9.144;2023-10-13T03:41:05;13.70;;;5.88;;
80421;SDS011;69763;50.182;9.144;2023-10-13T03:43:31;10.23;;;5.30;;
80421;SDS011;69763;50.182;9.144;2023-10-13T03:45:56;11.93;;;5.93;;
80421;SDS011;69763;50.182;9.144;2023-10-13T03:48:22;13.07;;;5.10;;
80421;SDS011;69763;50.182;9.144;2023-10-13T03:50:50;9.73;;;5.60;;
80421;SDS011;69763;50.182;9.144;2023-10-13T03:53:17;10.38;;;6.03;;
80421;SDS011;69763;50.182;9.144;2023-10-13T03:55:42;18.67;;;6.38;;
80421;SDS011;69763;50.182;9.144;2023-10-13T03:58:12;18.33;;;6.65;;
80421;SDS011;69763;50.182;9.144;2023-10-13T04:00:38;12.95;;;6.97;;
80421;SDS011;69763;50.182;9.144;2023-10-13T04:03:04;11.10;;;6.53;;
80421;SDS011;69763;50.182;9.144;2023-10-13T04:05:30;13.48;;;6.55;;
80421;SDS011;69763;50.182;9.144;2023-10-13T04:08:01;17.58;;;6.40;;
80421;SDS011;69763;50.182;9.144;2023-10-13T04:10:27;14.40;;;6.65;;
80421;SDS011;69763;50.182;9.144;2023-10-13T04:12:52;10.35;;;5.03;;
80421;SDS011;69763;50.182;9.144;2023-10-13T04:15:19;17.67;;;7.18;;
80421;SDS011;69763;50.182;9.144;2023-10-13T04:17:45;14.07;;;6.32;;
80421;SDS011;69763;50.182;9.144;2023-10-13T04:20:10;18.50;;;5.72;;
80421;SDS011;69763;50.182;9.144;2023-10-13T04:22:36;16.63;;;6.15;;
80421;SDS011;69763;50.182;9.144;2023-10-13T04:25:03;14.73;;;6.40;;
80421;SDS011;69763;50.182;9.144;2023-10-13T04:27:34;12.02;;;5.55;;
80421;SDS011;69763;50.182;9.144;2023-10-13T04:29:59;13.60;;;5.95;;
80421;SDS011;69763;50.182;9.144;2023-10-13T04:32:26;14.13;;;6.05;;
80421;SDS011;69763;50.182;9.144;2023-10-13T04:34:51;13.80;;;6.03;;
80421;SDS011;69763;50.182;9.144;2023-10-13T04:37:17;15.13;;;6.32;;
80421;SDS011;69763;50.182;9.144;2023-10-13T04:39:42;14.93;;;6.32;;
80421;SDS011;69763;50.182;9.144;2023-10-13T04:42:07;14.82;;;6.50;;
80421;SDS011;69763;50.182;9.144;2023-10-13T04:44:33;12.50;;;5.53;;
80421;SDS011;69763;50.182;9.144;2023-10-13T04:46:59;11.00;;;5.82;;
80421;SDS011;69763;50.182;9.144;2023-10-13T04:49:26;11.93;;;5.38;;
80421;SDS011;69763;50.182;9.144;2023-10-13T04:51:53;15.57;;;5.28;;
80421;SDS011;69763;50.182;9.144;2023-10-13T04:54:22;11.73;;;5.70;;
80421;SDS011;69763;50.182;9.144;2023-10-13T04:56:50;11.75;;;5.45;;
80421;SDS011;69763;50.182;9.144;2023-10-13T04:59:16;14.15;;;6.03;;
80421;SDS011;69763;50.182;9.144;2023-10-13T05:01:41;12.68;;;5.72;;
80421;SDS011;69763;50.182;9.144;2023-10-13T05:04:06;13.43;;;6.25;;
80421;SDS011;69763;50.182;9.144;2023-10-13T05:06:33;13.70;;;5.78;;
80421;SDS011;69763;50.182;9.144;2023-10-13T05:08:59;11.45;;;5.93;;
80421;SDS011;69763;50.182;9.144;2023-10-13T05:11:24;16.10;;;6.20;;
80421;SDS011;69763;50.182;9.144;2023-10-13T05:13:49;8.18;;;4.75;;
80421;SDS011;69763;50.182;9.144;2023-10-13T05:16:15;11.13;;;4.90;;
80421;SDS011;69763;50.182;9.144;2023-10-13T05:18:40;11.05;;;5.72;;
80421;SDS011;69763;50.182;9.144;2023-10-13T05:21:06;13.23;;;5.18;;
80421;SDS011;69763;50.182;9.144;2023-10-13T05:23:33;21.55;;;6.97;;
80421;SDS011;69763;50.182;9.144;2023-10-13T05:26:00;15.55;;;6.40;;
80421;SDS011;69763;50.182;9.144;2023-10-13T05:28:27;10.90;;;5.40;;
80421;SDS011;69763;50.182;9.144;2023-10-13T05:30:52;13.27;;;5.40;;
80421;SDS011;69763;50.182;9.144;2023-10-13T05:33:17;12.88;;;5.78;;
80421;SDS011;69763;50.182;9.144;2023-10-13T05:35:43;12.93;;;5.88;;
80421;SDS011;69763;50.182;9.144;2023-10-13T05:38:08;13.75;;;6.95;;
80421;SDS011;69763;50.182;9.144;2023-10-13T05:40:35;14.38;;;6.22;;
80421;SDS011;69763;50.182;9.144;2023-10-13T05:43:00;10.98;;;5.55;;
80421;SDS011;69763;50.182;9.144;2023-10-13T05:45:25;11.25;;;6.15;;
80421;SDS011;69763;50.182;9.144;2023-10-13T05:47:51;12.73;;;6.18;;
80421;SDS011;69763;50.182;9.144;2023-10-13T05:50:16;16.35;;;5.72;;
80421;SDS011;69763;50.182;9.144;2023-10-13T05:52:42;10.70;;;5.38;;
80421;SDS011;69763;50.182;9.144;2023-10-13T05:55:07;20.27;;;7.22;;
80421;SDS011;69763;50.182;9.144;2023-10-13T05:57:34;18.27;;;7.38;;
80421;SDS011;69763;50.182;9.144;2023-10-13T05:59:59;10.57;;;6.13;;
80421;SDS011;69763;50.182;9.144;2023-10-13T06:02:24;13.65;;;6.32;;
80421;SDS011;69763;50.182;9.144;2023-10-13T06:04:50;13.65;;;5.50;;
80421;SDS011;69763;50.182;9.144;2023-10-13T06:07:18;12.23;;;5.70;;
80421;SDS011;69763;50.182;9.144;2023-10-13T06:09:44;9.95;;;4.97;;
80421;SDS011;69763;50.182;9.144;2023-10-13T06:12:10;11.45;;;5.75;;
80421;SDS011;69763;50.182;9.144;2023-10-13T06:14:39;10.27;;;5.47;;
80421;SDS011;69763;50.182;9.144;2023-10-13T06:17:05;10.20;;;5.68;;
80421;SDS011;69763;50.182;9.144;2023-10-13T06:19:30;13.10;;;5.28;;
80421;SDS011;69763;50.182;9.144;2023-10-13T06:21:56;21.90;;;6.47;;
80421;SDS011;69763;50.182;9.144;2023-10-13T06:24:21;11.65;;;5.13;;
80421;SDS011;69763;50.182;9.144;2023-10-13T06:26:47;12.25;;;5.47;;
80421;SDS011;69763;50.182;9.144;2023-10-13T06:29:12;14.70;;;5.72;;
80421;SDS011;69763;50.182;9.144;2023-10-13T06:31:39;12.93;;;5.72;;
80421;SDS011;69763;50.182;9.144;2023-10-13T06:34:04;15.25;;;5.85;;
80421;SDS011;69763;50.182;9.144;2023-10-13T06:36:31;11.68;;;5.53;;
80421;SDS011;69763;50.182;9.144;2023-10-13T06:38:57;12.88;;;5.07;;
80421;SDS011;69763;50.182;9.144;2023-10-13T06:41:22;11.60;;;5.35;;
80421;SDS011;69763;50.182;9.144;2023-10-13T06:43:48;13.45;;;5.65;;
80421;SDS011;69763;50.182;9.144;2023-10-13T06:46:13;13.60;;;4.90;;
80421;SDS011;69763;50.182;9.144;2023-10-13T06:48:40;12.55;;;5.13;;
80421;SDS011;69763;50.182;9.144;2023-10-13T06:51:05;11.68;;;4.93;;
80421;SDS011;69763;50.182;9.144;2023-10-13T06:53:32;8.63;;;4.50;;
80421;SDS011;69763;50.182;9.144;2023-10-13T06:55:57;12.98;;;5.50;;
80421;SDS011;69763;50.182;9.144;2023-10-13T06:58:23;11.88;;;5.57;;
80421;SDS011;69763;50.182;9.144;2023-10-13T07:00:48;16.05;;;5.35;;
80421;SDS011;69763;50.182;9.144;2023-10-13T07:03:14;13.75;;;5.00;;
80421;SDS011;69763;50.182;9.144;2023-10-13T07:05:41;13.38;;;5.15;;
80421;SDS011;69763;50.182;9.144;2023-10-13T07:08:06;18.33;;;5.18;;
80421;SDS011;69763;50.182;9.144;2023-10-13T07:10:32;12.80;;;4.75;;
80421;SDS011;69763;50.182;9.144;2023-10-13T07:12:58;15.85;;;5.03;;
80421;SDS011;69763;50.182;9.144;2023-10-13T07:15:23;13.30;;;4.95;;
80421;SDS011;69763;50.182;9.144;2023-10-13T07:17:49;14.13;;;6.00;;
80421;SDS011;69763;50.182;9.144;2023-10-13T07:20:14;16.80;;;5.13;;
80421;SDS011;69763;50.182;9.144;2023-10-13T07:22:41;14.57;;;5.00;;
80421;SDS011;69763;50.182;9.144;2023-10-13T07:25:07;14.95;;;4.93;;
80421;SDS011;69763;50.182;9.144;2023-10-13T07:27:33;11.18;;;5.20;;
80421;SDS011;69763;50.182;9.144;2023-10-13T07:29:58;16.20;;;5.30;;
80421;SDS011;69763;50.182;9.144;2023-10-13T07:32:23;17.42;;;4.75;;
80421;SDS011;69763;50.182;9.144;2023-10-13T07:34:49;12.75;;;4.63;;
80421;SDS011;69763;50.182;9.144;2023-10-13T07:37:14;8.38;;;4.70;;
80421;SDS011;69763;50.182;9.144;2023-10-13T07:39:41;10.90;;;4.47;;
80421;SDS011;69763;50.182;9.144;2023-10-13T07:42:06;9.82;;;4.68;;
80421;SDS011;69763;50.182;9.144;2023-10-13T07:44:33;13.15;;;4.88;;
80421;SDS011;69763;50.182;9.144;2023-10-13T07:46:59;13.75;;;4.35;;
80421;SDS011;69763;50.182;9.144;2023-10-13T07:49:27;10.40;;;4.13;;
80421;SDS011;69763;50.182;9.144;2023-10-13T07:51:54;8.98;;;4.30;;
80421;SDS011;69763;50.182;9.144;2023-10-13T07:54:19;17.98;;;4.60;;
80421;SDS011;69763;50.182;9.144;2023-10-13T07:56:46;9.05;;;4.75;;
80421;SDS011;69763;50.182;9.144;2023-10-13T07:59:11;12.45;;;4.95;;
80421;SDS011;69763;50.182;9.144;2023-10-13T08:01:37;7.50;;;4.38;;
80421;SDS011;69763;50.182;9.144;2023-10-13T08:04:02;15.85;;;6.35;;
80421;SDS011;69763;50.182;9.144;2023-10-13T08:06:28;14.07;;;4.78;;
80421;SDS011;69763;50.182;9.144;2023-10-13T08:08:53;8.27;;;4.10;;
80421;SDS011;69763;50.182;9.144;2023-10-13T08:11:19;7.82;;;4.35;;
80421;SDS011;69763;50.182;9.144;2023-10-13T08:13:46;9.95;;;4.55;;
80421;SDS011;69763;50.182;9.144;2023-10-13T08:16:11;13.50;;;4.80;;
80421;SDS011;69763;50.182;9.144;2023-10-13T08:18:37;11.77;;;4.93;;
80421;SDS011;69763;50.182;9.144;2023-10-13T08:21:02;10.98;;;5.00;;
80421;SDS011;69763;50.182;9.144;2023-10-13T08:23:28;7.25;;;4.15;;
80421;SDS011;69763;50.182;9.144;2023-10-13T08:25:54;9.88;;;4.45;;
80421;SDS011;69763;50.182;9.144;2023-10-13T08:28:20;7.80;;;3.90;;
80421;SDS011;69763;50.182;9.144;2023-10-13T08:30:46;11.88;;;3.63;;
80421;SDS011;69763;50.182;9.144;2023-10-13T08:33:12;9.05;;;4.32;;
80421;SDS011;69763;50.182;9.144;2023-10-13T08:35:37;8.80;;;3.88;;
80421;SDS011;69763;50.182;9.144;2023-10-13T08:38:03;11.63;;;4.38;;
80421;SDS011;69763;50.182;9.144;2023-10-13T08:40:28;13.65;;;4.85;;
80421;SDS011;69763;50.182;9.144;2023-10-13T08:42:54;15.88;;;4.55;;
80421;SDS011;69763;50.182;9.144;2023-10-13T08:45:21;12.05;;;5.43;;
80421;SDS011;69763;50.182;9.144;2023-10-13T08:47:48;8.43;;;4.20;;
80421;SDS011;69763;50.182;9.144;2023-10-13T08:50:14;12.05;;;5.00;;
80421;SDS011;69763;50.182;9.144;2023-10-13T08:52:39;12.65;;;4.70;;
80421;SDS011;69763;50.182;9.144;2023-10-13T08:55:05;13.30;;;4.55;;
80421;SDS011;69763;50.182;9.144;2023-10-13T08:57:31;9.20;;;4.15;;
80421;SDS011;69763;50.182;9.144;2023-10-13T08:59:56;13.35;;;4.53;;
80421;SDS011;69763;50.182;9.144;2023-10-13T09:02:22;14.02;;;4.32;;
80421;SDS011;69763;50.182;9.144;2023-10-13T09:04:50;15.00;;;4.50;;
80421;SDS011;69763;50.182;9.144;2023-10-13T09:07:15;10.60;;;4.28;;
80421;SDS011;69763;50.182;9.144;2023-10-13T09:09:45;13.77;;;5.28;;
80421;SDS011;69763;50.182;9.144;2023-10-13T09:12:11;8.60;;;4.72;;
80421;SDS011;69763;50.182;9.144;2023-10-13T09:14:37;15.65;;;4.47;;
80421;SDS011;69763;50.182;9.144;2023-10-13T09:17:06;9.13;;;4.68;;
80421;SDS011;69763;50.182;9.144;2023-10-13T09:19:31;11.63;;;4.88;;
80421;SDS011;69763;50.182;9.144;2023-10-13T09:21:58;9.63;;;4.63;;
80421;SDS011;69763;50.182;9.144;2023-10-13T09:24:23;11.98;;;5.05;;
80421;SDS011;69763;50.182;9.144;2023-10-13T09:29:15;8.33;;;4.53;;
80421;SDS011;69763;50.182;9.144;2023-10-13T09:31:45;10.75;;;4.68;;
80421;SDS011;69763;50.182;9.144;2023-10-13T09:34:18;9.02;;;4.88;;
80421;SDS011;69763;50.182;9.144;2023-10-13T09:36:44;13.27;;;5.00;;
80421;SDS011;69763;50.182;9.144;2023-10-13T09:39:11;11.27;;;5.35;;
80421;SDS011;69763;50.182;9.144;2023-10-13T09:41:39;9.18;;;4.30;;
80421;SDS011;69763;50.182;9.144;2023-10-13T09:44:05;8.65;;;4.63;;
80421;SDS011;69763;50.182;9.144;2023-10-13T09:46:30;10.50;;;4.65;;
80421;SDS011;69763;50.182;9.144;2023-10-13T09:48:57;8.23;;;4.30;;
80421;SDS011;69763;50.182;9.144;2023-10-13T09:51:23;7.22;;;4.35;;
80421;SDS011;69763;50.182;9.144;2023-10-13T09:53:50;8.90;;;4.68;;
80421;SDS011;69763;50.182;9.144;2023-10-13T09:56:22;13.07;;;4.70;;
80421;SDS011;69763;50.182;9.144;2023-10-13T09:58:51;10.65;;;4.65;;
80421;SDS011;69763;50.182;9.144;2023-10-13T10:01:27;11.15;;;5.10;;
80421;SDS011;69763;50.182;9.144;2023-10-13T10:03:53;9.20;;;5.40;;
80421;SDS011;69763;50.182;9.144;2023-10-13T10:06:21;11.32;;;4.88;;
80421;SDS011;69763;50.182;9.144;2023-10-13T10:08:47;9.43;;;4.93;;
80421;SDS011;69763;50.182;9.144;2023-10-13T10:11:26;10.68;;;4.47;;
80421;SDS011;69763;50.182;9.144;2023-10-13T10:14:23;6.80;;;3.83;;
80421;SDS011;69763;50.182;9.144;2023-10-13T10:17:04;9.90;;;4.78;;
80421;SDS011;69763;50.182;9.144;2023-10-13T10:19:31;12.95;;;5.00;;
80421;SDS011;69763;50.182;9.144;2023-10-13T10:22:03;13.45;;;4.95;;
80421;SDS011;69763;50.182;9.144;2023-10-13T10:24:28;8.88;;;4.50;;
80421;SDS011;69763;50.182;9.144;2023-10-13T10:26:55;9.45;;;4.90;;
80421;SDS011;69763;50.182;9.144;2023-10-13T10:29:20;9.45;;;5.20;;
80421;SDS011;69763;50.182;9.144;2023-10-13T10:31:46;10.52;;;4.63;;
80421;SDS011;69763;50.182;9.144;2023-10-13T10:34:12;7.68;;;4.50;;
80421;SDS011;69763;50.182;9.144;2023-10-13T10:36:38;8.02;;;4.68;;
80421;SDS011;69763;50.182;9.144;2023-10-13T10:39:04;8.40;;;4.50;;
80421;SDS011;69763;50.182;9.144;2023-10-13T10:41:30;11.02;;;4.45;;
80421;SDS011;69763;50.182;9.144;2023-10-13T10:43:57;9.77;;;4.68;;
80421;SDS011;69763;50.182;9.144;2023-10-13T10:46:25;16.10;;;5.00;;
80421;SDS011;69763;50.182;9.144;2023-10-13T10:48:52;7.65;;;4.32;;
80421;SDS011;69763;50.182;9.144;2023-10-13T10:51:17;7.82;;;4.53;;
80421;SDS011;69763;50.182;9.144;2023-10-13T10:53:43;7.82;;;5.28;;
80421;SDS011;69763;50.182;9.144;2023-10-13T10:56:09;10.55;;;5.57;;
80421;SDS011;69763;50.182;9.144;2023-10-13T10:58:35;13.38;;;4.72;;
80421;SDS011;69763;50.182;9.144;2023-10-13T11:01:05;11.25;;;5.03;;
80421;SDS011;69763;50.182;9.144;2023-10-13T11:03:31;9.93;;;4.70;;
80421;SDS011;69763;50.182;9.144;2023-10-13T11:05:56;8.50;;;5.18;;
80421;SDS011;69763;50.182;9.144;2023-10-13T11:08:22;12.13;;;5.10;;
80421;SDS011;69763;50.182;9.144;2023-10-13T11:10:48;7.00;;;4.60;;
80421;SDS011;69763;50.182;9.144;2023-10-13T11:13:13;11.40;;;4.93;;
80421;SDS011;69763;50.182;9.144;2023-10-13T11:15:42;8.07;;;4.90;;
80421;SDS011;69763;50.182;9.144;2023-10-13T11:18:09;10.50;;;4.93;;
80421;SDS011;69763;50.182;9.144;2023-10-13T11:20:34;12.40;;;4.68;;
80421;SDS011;69763;50.182;9.144;2023-10-13T11:25:35;14.50;;;4.68;;
80421;SDS011;69763;50.182;9.144;2023-10-13T11:28:09;10.18;;;4.35;;
80421;SDS011;69763;50.182;9.144;2023-10-13T11:30:35;12.13;;;6.40;;
80421;SDS011;69763;50.182;9.144;2023-10-13T11:33:01;8.82;;;4.60;;
80421;SDS011;69763;50.182;9.144;2023-10-13T11:35:31;13.15;;;5.28;;
80421;SDS011;69763;50.182;9.144;2023-10-13T11:37:57;8.38;;;4.30;;
80421;SDS011;69763;50.182;9.144;2023-10-13T11:40:22;10.07;;;4.43;;
80421;SDS011;69763;50.182;9.144;2023-10-13T11:45:14;8.95;;;4.68;;
80421;SDS011;69763;50.182;9.144;2023-10-13T11:47:39;11.85;;;4.20;;
80421;SDS011;69763;50.182;9.144;2023-10-13T11:50:05;7.88;;;4.15;;
80421;SDS011;69763;50.182;9.144;2023-10-13T11:54:57;9.38;;;5.18;;
80421;SDS011;69763;50.182;9.144;2023-10-13T11:57:22;10.43;;;4.55;;
80421;SDS011;69763;50.182;9.144;2023-10-13T12:02:13;12.03;;;4.73;;
80421;SDS011;69763;50.182;9.144;2023-10-13T12:04:39;6.90;;;4.38;;
80421;SDS011;69763;50.182;9.144;2023-10-13T12:09:31;10.87;;;5.33;;
80421;SDS011;69763;50.182;9.144;2023-10-13T12:11:56;9.52;;;4.72;;
80421;SDS011;69763;50.182;9.144;2023-10-13T12:16:47;8.33;;;4.47;;
80421;SDS011;69763;50.182;9.144;2023-10-13T12:19:13;10.55;;;4.55;;
80421;SDS011;69763;50.182;9.144;2023-10-13T12:21:42;17.95;;;5.15;;
80421;SDS011;69763;50.182;9.144;2023-10-13T12:26:34;10.20;;;4.97;;
80421;SDS011;69763;50.182;9.144;2023-10-13T12:28:59;10.65;;;4.93;;
80421;SDS011;69763;50.182;9.144;2023-10-13T12:33:50;8.50;;;5.20;;
80421;SDS011;69763;50.182;9.144;2023-10-13T12:36:15;11.48;;;4.63;;
80421;SDS011;69763;50.182;9.144;2023-10-13T12:38:41;13.25;;;4.70;;
80421;SDS011;69763;50.182;9.144;2023-10-13T12:43:33;10.23;;;4.60;;
80421;SDS011;69763;50.182;9.144;2023-10-13T12:45:59;8.40;;;4.82;;
80421;SDS011;69763;50.182;9.144;2023-10-13T12:48:24;7.63;;;4.95;;
80421;SDS011;69763;50.182;9.144;2023-10-13T12:53:15;7.93;;;4.10;;
80421;SDS011;69763;50.182;9.144;2023-10-13T12:55:40;10.27;;;4.55;;
80421;SDS011;69763;50.182;9.144;2023-10-13T13:00:32;13.27;;;4.60;;
80421;SDS011;69763;50.182;9.144;2023-10-13T13:02:58;14.70;;;5.20;;
80421;SDS011;69763;50.182;9.144;2023-10-13T13:05:23;14.10;;;4.75;;
80421;SDS011;69763;50.182;9.144;2023-10-13T13:07:49;12.70;;;5.50;;
80421;SDS011;69763;50.182;9.144;2023-10-13T13:10:14;7.10;;;4.20;;
80421;SDS011;69763;50.182;9.144;2023-10-13T13:12:39;10.73;;;5.00;;
80421;SDS011;69763;50.182;9.144;2023-10-13T13:15:05;9.00;;;4.75;;
80421;SDS011;69763;50.182;9.144;2023-10-13T13:17:32;7.40;;;4.80;;
80421;SDS011;69763;50.182;9.144;2023-10-13T13:19:57;9.05;;;4.47;;
80421;SDS011;69763;50.182;9.144;2023-10-13T13:22:23;11.35;;;5.03;;
80421;SDS011;69763;50.182;9.144;2023-10-13T13:27:14;7.73;;;4.30;;
80421;SDS011;69763;50.182;9.144;2023-10-13T13:29:40;7.80;;;4.60;;
80421;SDS011;69763;50.182;9.144;2023-10-13T13:32:06;9.05;;;4.55;;
80421;SDS011;69763;50.182;9.144;2023-10-13T13:34:33;8.55;;;4.25;;
80421;SDS011;69763;50.182;9.144;2023-10-13T13:36:58;11.77;;;4.43;;
80421;SDS011;69763;50.182;9.144;2023-10-13T13:39:24;9.80;;;4.90;;
80421;SDS011;69763;50.182;9.144;2023-10-13T13:44:14;11.40;;;4.67;;
80421;SDS011;69763;50.182;9.144;2023-10-13T13:46:40;7.03;;;4.38;;
80421;SDS011;69763;50.182;9.144;2023-10-13T13:51:32;9.53;;;4.60;;
80421;SDS011;69763;50.182;9.144;2023-10-13T13:53:57;14.45;;;4.85;;
80421;SDS011;69763;50.182;9.144;2023-10-13T13:56:23;7.95;;;4.03;;
80421;SDS011;69763;50.182;9.144;2023-10-13T13:58:49;8.80;;;4.32;;
80421;SDS011;69763;50.182;9.144;2023-10-13T14:01:15;10.38;;;4.47;;
80421;SDS011;69763;50.182;9.144;2023-10-13T14:03:41;6.68;;;4.40;;
80421;SDS011;69763;50.182;9.144;2023-10-13T14:06:09;10.80;;;4.63;;
80421;SDS011;69763;50.182;9.144;2023-10-13T14:08:36;9.57;;;4.53;;
80421;SDS011;69763;50.182;9.144;2023-10-13T14:11:01;10.77;;;4.65;;
80421;SDS011;69763;50.182;9.144;2023-10-13T14:13:26;11.38;;;4.93;;
80421;SDS011;69763;50.182;9.144;2023-10-13T14:15:52;11.52;;;4.80;;
80421;SDS011;69763;50.182;9.144;2023-10-13T14:18:17;10.48;;;4.43;;
80421;SDS011;69763;50.182;9.144;2023-10-13T14:23:10;10.37;;;4.60;;
80421;SDS011;69763;50.182;9.144;2023-10-13T14:25:37;12.88;;;4.20;;
80421;SDS011;69763;50.182;9.144;2023-10-13T14:28:04;9.38;;;4.40;;
80421;SDS011;69763;50.182;9.144;2023-10-13T14:30:30;8.18;;;4.88;;
80421;SDS011;69763;50.182;9.144;2023-10-13T14:32:55;14.75;;;4.72;;
80421;SDS011;69763;50.182;9.144;2023-10-13T14:35:21;14.05;;;4.78;;
80421;SDS011;69763;50.182;9.144;2023-10-13T14:37:46;8.65;;;4.28;;
80421;SDS011;69763;50.182;9.144;2023-10-13T14:40:12;9.43;;;5.05;;
80421;SDS011;69763;50.182;9.144;2023-10-13T14:45:07;8.32;;;3.92;;
80421;SDS011;69763;50.182;9.144;2023-10-13T14:47:33;8.82;;;4.32;;
80421;SDS011;69763;50.182;9.144;2023-10-13T14:49:58;12.13;;;4.68;;
80421;SDS011;69763;50.182;9.144;2023-10-13T14:52:24;8.88;;;4.90;;
80421;SDS011;69763;50.182;9.144;2023-10-13T14:54:49;9.95;;;4.30;;
80421;SDS011;69763;50.182;9.144;2023-10-13T14:57:14;10.20;;;4.10;;
80421;SDS011;69763;50.182;9.144;2023-10-13T15:02:06;11.13;;;4.03;;
80421;SDS011;69763;50.182;9.144;2023-10-13T15:04:32;15.18;;;4.75;;
80421;SDS011;69763;50.182;9.144;2023-10-13T15:06:57;9.73;;;4.25;;
80421;SDS011;69763;50.182;9.144;2023-10-13T15:09:23;5.38;;;3.45;;
80421;SDS011;69763;50.182;9.144;2023-10-13T15:14:14;7.17;;;3.93;;
80421;SDS011;69763;50.182;9.144;2023-10-13T15:19:06;7.72;;;4.20;;
80421;SDS011;69763;50.182;9.144;2023-10-13T15:21:31;12.95;;;4.35;;
80421;SDS011;69763;50.182;9.144;2023-10-13T15:23:57;10.02;;;4.57;;